Time;durP1;ratioP1;P1;durP2;ratioP2;P2;SDS_P1;SDS_P2;PMS_P1;PMS_P2;Temp;Humidity;BMP_temperature;BMP_pressure;BME280_temperature;BME280_humidity;BME280_pressure;Samples;Min_cycle;Max_cycle;Signal;HPM_P1;HPM_P2
2023/08/13 00:01:04;;;;;;;5.70;3.60;;;;;;;20.12;48.12;101343.63;5024724;28;20059;-72
2023/08/13 00:03:32;;;;;;;6.78;3.92;;;;;;;20.10;48.44;101337.44;5019697;28;20153;-72
2023/08/13 00:06:00;;;;;;;7.53;4.30;;;;;;;20.10;48.33;101343.00;5017986;28;20222;-72
2023/08/13 00:08:29;;;;;;;5.40;3.63;;;;;;;20.10;48.26;101342.13;5022789;28;20611;-72
2023/08/13 00:10:57;;;;;;;6.68;3.85;;;;;;;20.06;48.41;101344.38;5018071;28;20133;-72
2023/08/13 00:13:25;;;;;;;7.38;3.97;;;;;;;20.05;48.55;101337.09;5023660;28;20099;-72
2023/08/13 00:15:53;;;;;;;5.15;3.78;;;;;;;20.05;48.68;101339.00;5017851;28;20469;-72
2023/08/13 00:18:21;;;;;;;6.22;3.85;;;;;;;20.02;48.46;101340.28;5028552;28;20037;-72
2023/08/13 00:20:49;;;;;;;6.75;3.90;;;;;;;20.00;48.62;101340.44;5023575;28;20111;-72
2023/08/13 00:23:17;;;;;;;6.50;4.03;;;;;;;19.99;48.49;101341.50;5017382;28;20565;-72
2023/08/13 00:25:47;;;;;;;8.10;4.63;;;;;;;20.00;48.67;101339.59;5022836;28;20049;-72
2023/08/13 00:28:15;;;;;;;6.50;4.03;;;;;;;19.97;48.63;101339.94;5021826;28;20053;-72
2023/08/13 00:30:43;;;;;;;7.35;3.78;;;;;;;19.95;48.40;101347.63;5019628;28;20129;-72
2023/08/13 00:33:10;;;;;;;5.65;3.90;;;;;;;19.93;48.53;101349.72;5027040;28;20136;-72
2023/08/13 00:35:39;;;;;;;6.43;3.63;;;;;;;19.92;48.63;101347.97;5025162;28;20532;-72
2023/08/13 00:38:06;;;;;;;5.60;3.55;;;;;;;19.91;48.56;101357.34;5024729;28;20045;-72
2023/08/13 00:40:34;;;;;;;5.97;3.47;;;;;;;19.90;48.37;101358.38;5024963;28;20129;-72
2023/08/13 00:43:04;;;;;;;6.20;3.60;;;;;;;19.91;48.42;101358.22;5026015;28;20052;-72
2023/08/13 00:45:35;;;;;;;5.85;3.90;;;;;;;19.91;48.92;101368.47;5018505;28;20053;-72
2023/08/13 00:48:06;;;;;;;6.32;3.80;;;;;;;19.89;48.98;101365.81;5021628;28;20046;-72
2023/08/13 00:50:34;;;;;;;7.35;4.20;;;;;;;19.87;48.66;101362.38;5023698;28;20037;-72
2023/08/13 00:53:03;;;;;;;7.30;4.20;;;;;;;19.87;48.52;101372.63;5021744;28;20084;-72
2023/08/13 00:55:32;;;;;;;7.80;4.30;;;;;;;19.85;48.48;101358.94;5023759;28;20140;-72
2023/08/13 00:58:01;;;;;;;7.63;4.82;;;;;;;19.84;48.72;101361.88;5023167;28;20038;-74
2023/08/13 01:00:31;;;;;;;8.02;5.10;;;;;;;19.84;48.66;101354.41;5015919;28;20128;-72
2023/08/13 01:02:59;;;;;;;6.80;4.82;;;;;;;19.81;48.53;101354.78;5016264;28;20053;-72
2023/08/13 01:05:37;;;;;;;7.68;4.50;;;;;;;19.83;48.63;101358.25;5024919;28;20043;-72
2023/08/13 01:08:13;;;;;;;7.10;4.30;;;;;;;19.80;48.70;101358.59;5023856;28;20072;-72
2023/08/13 01:10:49;;;;;;;7.10;4.28;;;;;;;19.79;48.89;101364.34;5018738;28;20041;-72
2023/08/13 01:13:23;;;;;;;8.82;3.80;;;;;;;19.79;48.94;101367.13;5021409;28;20045;-72
2023/08/13 01:15:54;;;;;;;7.13;4.38;;;;;;;19.77;48.81;101370.09;5022047;28;20072;-72
2023/08/13 01:18:23;;;;;;;11.30;4.35;;;;;;;19.74;48.65;101370.44;5022466;28;20505;-72
2023/08/13 01:20:51;;;;;;;6.75;4.03;;;;;;;19.73;48.53;101367.84;5017162;28;20560;-72
2023/08/13 01:23:20;;;;;;;7.25;3.63;;;;;;;19.73;48.42;101374.25;5023623;28;20049;-72
2023/08/13 01:25:54;;;;;;;5.20;3.60;;;;;;;19.73;48.74;101373.41;5023704;28;20176;-71
2023/08/13 01:28:31;;;;;;;5.78;3.50;;;;;;;19.71;48.88;101367.19;5036695;28;20424;-71
2023/08/13 01:31:06;;;;;;;5.75;3.78;;;;;;;19.69;49.04;101367.34;5024277;28;20049;-72
2023/08/13 01:33:36;;;;;;;5.43;3.38;;;;;;;19.67;48.56;101363.88;5026968;28;20381;-72
2023/08/13 01:36:06;;;;;;;5.82;3.30;;;;;;;19.67;48.64;101369.44;5015429;28;20042;-72
2023/08/13 01:38:36;;;;;;;6.00;3.47;;;;;;;19.67;48.51;101374.13;5016444;28;20404;-72
2023/08/13 01:41:05;;;;;;;5.65;3.03;;;;;;;19.63;48.89;101365.28;5017302;28;20429;-72
2023/08/13 01:43:33;;;;;;;5.13;2.70;;;;;;;19.62;48.74;101371.91;5021948;28;20075;-72
2023/08/13 01:46:02;;;;;;;6.05;3.33;;;;;;;19.63;48.83;101370.84;5015037;28;20041;-72
2023/08/13 01:48:30;;;;;;;6.78;3.35;;;;;;;19.59;48.98;101373.13;5019585;28;20075;-72
2023/08/13 01:50:58;;;;;;;6.85;2.92;;;;;;;19.58;48.73;101376.09;5022053;28;20072;-71
2023/08/13 01:53:27;;;;;;;6.20;3.20;;;;;;;19.56;48.95;101369.84;5019011;28;20584;-72
2023/08/13 01:55:56;;;;;;;6.95;3.33;;;;;;;19.56;48.79;101379.03;5033133;28;20049;-72
2023/08/13 01:58:24;;;;;;;6.03;3.10;;;;;;;19.53;48.79;101370.22;5017031;28;20521;-72
2023/08/13 02:00:53;;;;;;;4.93;2.90;;;;;;;19.52;48.51;101377.69;5017783;28;20037;-72
2023/08/13 02:03:21;;;;;;;5.72;2.78;;;;;;;19.50;48.49;101376.13;5026723;28;20065;-72
2023/08/13 02:05:49;;;;;;;5.28;2.83;;;;;;;19.48;48.67;101379.06;5020222;28;20401;-72
2023/08/13 02:08:17;;;;;;;5.13;3.20;;;;;;;19.47;48.49;101377.34;5028608;28;20449;-72
2023/08/13 02:10:45;;;;;;;6.55;3.00;;;;;;;19.46;48.74;101375.59;5023986;28;20045;-72
2023/08/13 02:13:14;;;;;;;5.97;3.00;;;;;;;19.49;48.91;101379.94;5022515;28;20045;-72
2023/08/13 02:15:42;;;;;;;4.35;2.85;;;;;;;19.46;48.65;101372.00;5018568;28;20050;-72
2023/08/13 02:18:10;;;;;;;5.68;2.90;;;;;;;19.46;48.75;101372.81;5022365;28;20107;-72
2023/08/13 02:20:38;;;;;;;5.15;2.45;;;;;;;19.47;48.94;101373.69;5031242;28;20415;-72
2023/08/13 02:23:06;;;;;;;5.43;3.20;;;;;;;19.47;48.81;101368.13;5023837;28;20042;-72
2023/08/13 02:25:35;;;;;;;5.75;2.90;;;;;;;19.47;48.93;101365.38;5023399;28;20041;-72
2023/08/13 02:28:03;;;;;;;5.65;2.60;;;;;;;19.48;48.84;101364.31;5022637;28;20148;-72
2023/08/13 02:30:33;;;;;;;5.13;2.65;;;;;;;19.49;48.93;101361.38;5024792;28;20055;-72
2023/08/13 02:33:00;;;;;;;5.80;2.67;;;;;;;19.47;48.97;101368.13;5028579;28;20563;-72
2023/08/13 02:35:28;;;;;;;4.65;2.55;;;;;;;19.47;48.72;101366.22;5022723;28;20053;-72
2023/08/13 02:37:57;;;;;;;4.40;2.63;;;;;;;19.47;48.75;101366.22;5026585;28;20227;-72
2023/08/13 02:40:24;;;;;;;4.80;2.90;;;;;;;19.46;48.81;101370.06;5026834;28;20512;-72
2023/08/13 02:42:52;;;;;;;9.63;3.55;;;;;;;19.45;48.98;101371.13;5021888;28;20575;-72
2023/08/13 02:45:20;;;;;;;5.72;3.03;;;;;;;19.44;48.82;101377.72;5021239;28;20049;-72
2023/08/13 02:47:50;;;;;;;6.50;3.00;;;;;;;19.46;49.01;101367.28;5026512;28;20610;-72
2023/08/13 02:50:18;;;;;;;5.95;3.03;;;;;;;19.42;48.83;101365.91;5018137;28;20539;-72
2023/08/13 02:52:45;;;;;;;5.07;2.90;;;;;;;19.41;48.90;101366.97;5020316;28;20045;-72
2023/08/13 02:55:14;;;;;;;5.88;2.75;;;;;;;19.38;48.81;101361.75;5024167;28;20052;-72
2023/08/13 02:57:41;;;;;;;4.47;2.60;;;;;;;19.38;48.65;101369.25;5026193;28;20072;-72
2023/08/13 03:00:23;;;;;;;5.50;2.80;;;;;;;19.34;48.41;101360.41;5025573;28;20368;-72
2023/08/13 03:02:52;;;;;;;5.32;2.88;;;;;;;19.35;48.57;101367.69;5022032;28;20041;-72
2023/08/13 03:05:20;;;;;;;6.38;3.03;;;;;;;19.31;48.89;101366.31;5019523;28;20049;-72
2023/08/13 03:07:48;;;;;;;5.32;2.63;;;;;;;19.30;49.03;101361.78;5015958;28;20465;-72
2023/08/13 03:10:16;;;;;;;5.78;3.28;;;;;;;19.28;48.75;101355.59;5024283;28;20038;-72
2023/08/13 03:12:44;;;;;;;5.18;2.70;;;;;;;19.27;48.91;101359.41;5019546;28;20053;-72
2023/08/13 03:15:13;;;;;;;5.57;2.72;;;;;;;19.25;48.78;101361.47;5018262;28;20050;-72
2023/08/13 03:17:41;;;;;;;5.05;3.22;;;;;;;19.23;49.07;101358.88;5021372;28;20531;-72
2023/08/13 03:20:11;;;;;;;5.57;2.83;;;;;;;19.23;49.28;101358.88;5018305;28;20052;-72
2023/08/13 03:22:39;;;;;;;6.85;2.60;;;;;;;19.20;48.73;101362.03;5021979;28;20515;-72
2023/08/13 03:25:07;;;;;;;4.95;2.80;;;;;;;19.19;48.81;101357.47;5022211;28;20074;-72
2023/08/13 03:27:35;;;;;;;6.60;2.92;;;;;;;19.18;48.77;101354.88;5019651;28;20053;-72
2023/08/13 03:30:04;;;;;;;5.45;2.55;;;;;;;19.18;48.85;101349.34;5025950;28;20049;-72
2023/08/13 03:32:32;;;;;;;4.60;2.65;;;;;;;19.17;49.10;101350.38;5027207;28;20048;-72
2023/08/13 03:35:02;;;;;;;4.30;2.60;;;;;;;19.15;49.03;101344.13;5025115;28;20045;-72
2023/08/13 03:37:31;;;;;;;5.07;2.75;;;;;;;19.17;49.17;101342.06;5020486;28;20069;-72
2023/08/13 03:39:59;;;;;;;6.55;2.92;;;;;;;19.14;49.13;101346.03;5026316;28;20420;-72
2023/08/13 03:42:28;;;;;;;7.20;2.85;;;;;;;19.13;48.81;101351.78;5025069;28;20240;-72
2023/08/13 03:44:56;;;;;;;5.97;2.88;;;;;;;19.12;48.79;101348.16;5017436;28;20814;-72
2023/08/13 03:47:24;;;;;;;7.05;3.20;;;;;;;19.10;48.59;101350.22;5019358;28;20041;-72
2023/08/13 03:49:52;;;;;;;5.20;3.13;;;;;;;19.09;48.42;101355.94;5015921;28;20052;-72
2023/08/13 03:52:20;;;;;;;5.97;3.13;;;;;;;19.06;48.34;101353.53;5022881;28;20427;-72
2023/08/13 03:54:49;;;;;;;6.13;3.22;;;;;;;19.05;48.81;101357.38;5020976;28;20038;-72
2023/08/13 03:57:17;;;;;;;6.03;2.90;;;;;;;19.02;48.55;101360.47;5021601;28;20489;-72
2023/08/13 03:59:46;;;;;;;6.45;3.30;;;;;;;19.00;48.78;101359.78;5025058;28;20349;-72
2023/08/13 04:02:14;;;;;;;7.18;3.17;;;;;;;18.99;48.85;101360.81;5022691;28;20041;-72
2023/08/13 04:04:45;;;;;;;6.88;3.25;;;;;;;18.97;48.79;101360.13;5023137;28;20048;-72
2023/08/13 04:07:14;;;;;;;6.90;3.42;;;;;;;18.95;48.67;101368.66;5025440;28;20126;-72
2023/08/13 04:09:42;;;;;;;5.78;3.40;;;;;;;18.93;48.33;101365.19;5025421;28;20087;-72
2023/08/13 04:12:12;;;;;;;7.07;3.80;;;;;;;18.93;48.86;101367.97;5019123;28;20073;-72
2023/08/13 04:14:40;;;;;;;7.55;3.17;;;;;;;18.90;48.63;101368.31;5017303;28;20048;-72
2023/08/13 04:17:08;;;;;;;6.32;3.03;;;;;;;18.89;48.75;101372.13;5021154;28;20183;-72
2023/08/13 04:19:36;;;;;;;5.63;3.03;;;;;;;18.86;48.59;101366.94;5024426;28;20420;-72
2023/08/13 04:22:04;;;;;;;5.93;3.17;;;;;;;18.84;48.58;101372.66;5017636;28;20507;-72
2023/08/13 04:24:32;;;;;;;6.07;3.17;;;;;;;18.83;48.77;101381.16;5017754;28;20037;-72
2023/08/13 04:27:01;;;;;;;5.93;3.40;;;;;;;18.81;48.39;101375.78;5023675;28;20183;-72
2023/08/13 04:29:31;;;;;;;4.32;2.97;;;;;;;18.83;48.98;101376.47;5022733;28;20508;-72
2023/08/13 04:31:59;;;;;;;5.55;3.10;;;;;;;18.80;48.86;101374.03;5019641;28;20568;-72
2023/08/13 04:34:27;;;;;;;7.20;3.15;;;;;;;18.79;49.02;101372.34;5023155;28;20037;-72
2023/08/13 04:36:55;;;;;;;5.93;3.17;;;;;;;18.77;49.02;101370.75;5024916;28;20087;-72
2023/08/13 04:39:22;;;;;;;5.75;3.05;;;;;;;18.76;48.59;101369.91;5023841;28;20110;-72
2023/08/13 04:41:51;;;;;;;5.07;3.00;;;;;;;18.75;48.85;101373.72;5018509;28;20037;-72
2023/08/13 04:44:19;;;;;;;7.55;3.60;;;;;;;18.74;48.58;101371.97;5022088;28;20086;-72
2023/08/13 04:46:48;;;;;;;6.15;3.25;;;;;;;18.75;48.47;101370.06;5014377;28;20099;-72
2023/08/13 04:49:16;;;;;;;6.60;3.08;;;;;;;18.72;48.75;101378.75;5015540;28;20170;-72
2023/08/13 04:51:44;;;;;;;5.00;3.00;;;;;;;18.69;48.61;101371.66;5023305;28;20509;-72
2023/08/13 04:54:12;;;;;;;6.72;2.78;;;;;;;18.67;48.90;101370.94;5021992;28;20059;-72
2023/08/13 04:56:40;;;;;;;6.88;3.30;;;;;;;18.64;48.86;101371.28;5011027;28;20108;-72
2023/08/13 04:59:08;;;;;;;6.55;3.67;;;;;;;18.63;48.95;101375.13;5021753;28;20055;-72
2023/08/13 05:01:37;;;;;;;7.25;3.60;;;;;;;18.60;48.71;101372.69;5026084;28;20208;-72
2023/08/13 05:04:07;;;;;;;9.65;3.85;;;;;;;18.60;48.73;101375.47;5016218;28;20057;-72
2023/08/13 05:06:37;;;;;;;6.50;3.20;;;;;;;18.57;49.04;101375.81;5021943;28;20156;-72
2023/08/13 05:09:06;;;;;;;6.68;3.38;;;;;;;18.57;49.09;101383.25;5020592;28;20100;-72
2023/08/13 05:11:34;;;;;;;5.05;2.90;;;;;;;18.55;49.44;101383.44;5018093;28;20128;-72
2023/08/13 05:14:02;;;;;;;7.00;3.20;;;;;;;18.55;49.04;101382.59;5020156;28;20765;-72
2023/08/13 05:16:31;;;;;;;6.65;3.53;;;;;;;18.54;49.29;101376.16;5019585;28;20043;-72
2023/08/13 05:18:59;;;;;;;9.15;4.03;;;;;;;18.54;49.10;101380.84;5020035;28;20053;-72
2023/08/13 05:21:30;;;;;;;5.93;3.45;;;;;;;18.55;49.18;101371.50;5024486;28;20058;-72
2023/08/13 05:23:58;;;;;;;6.00;3.28;;;;;;;18.52;49.22;101372.69;5022474;28;20503;-72
2023/08/13 05:26:25;;;;;;;6.32;3.00;;;;;;;18.53;49.52;101374.44;5024280;28;20115;-72
2023/08/13 05:28:54;;;;;;;5.60;2.97;;;;;;;18.52;49.61;101381.00;5024451;28;20149;-72
2023/08/13 05:31:22;;;;;;;5.47;3.13;;;;;;;18.53;50.04;101374.44;5016514;28;20135;-72
2023/08/13 05:33:50;;;;;;;4.18;2.78;;;;;;;18.55;50.25;101375.13;5017083;28;20041;-72
2023/08/13 05:36:18;;;;;;;3.55;2.35;;;;;;;18.59;49.84;101372.84;5022963;28;20142;-72
2023/08/13 05:38:47;;;;;;;4.22;2.75;;;;;;;18.63;50.51;101377.91;5019416;28;20053;-72
2023/08/13 05:41:15;;;;;;;4.95;2.40;;;;;;;18.63;49.95;101368.72;5019554;28;20540;-72
2023/08/13 05:43:43;;;;;;;6.47;2.80;;;;;;;18.65;50.32;101373.03;5011893;28;20052;-72
2023/08/13 05:46:11;;;;;;;6.53;2.75;;;;;;;18.67;50.31;101372.84;5017586;28;20112;-72
2023/08/13 05:48:39;;;;;;;4.88;3.10;;;;;;;18.70;50.41;101378.06;5013089;28;20049;-72
2023/08/13 05:51:08;;;;;;;6.05;2.90;;;;;;;18.72;50.26;101387.06;5026324;28;20107;-72
2023/08/13 05:53:36;;;;;;;4.22;2.70;;;;;;;18.73;50.26;101381.31;5025303;28;20076;-72
2023/08/13 05:56:05;;;;;;;7.60;3.20;;;;;;;18.76;50.29;101375.44;5020486;28;20069;-72
2023/08/13 05:58:33;;;;;;;3.90;2.58;;;;;;;18.75;50.22;101383.94;5017146;28;20607;-72
2023/08/13 06:01:01;;;;;;;6.97;3.05;;;;;;;18.76;50.04;101389.31;5023277;28;20057;-72
2023/08/13 06:03:29;;;;;;;6.82;3.17;;;;;;;18.77;50.10;101398.50;5019766;28;20129;-72
2023/08/13 06:05:57;;;;;;;6.53;2.85;;;;;;;18.77;50.51;101384.63;5017147;28;20511;-72
2023/08/13 06:08:25;;;;;;;4.55;3.22;;;;;;;18.78;50.23;101386.38;5025894;28;20049;-72
2023/08/13 06:10:53;;;;;;;6.30;3.05;;;;;;;18.77;50.43;101391.03;5026139;28;20490;-72
2023/08/13 06:13:22;;;;;;;4.93;2.88;;;;;;;18.80;50.37;101381.53;5015515;28;20518;-72
2023/08/13 06:15:50;;;;;;;6.28;3.50;;;;;;;18.79;50.61;101393.66;5021823;28;20042;-72
2023/08/13 06:18:21;;;;;;;6.82;3.30;;;;;;;18.80;50.89;101387.06;5024152;28;20049;-72
2023/08/13 06:20:48;;;;;;;5.50;3.25;;;;;;;18.81;50.61;101386.88;5019680;28;20080;-72
2023/08/13 06:23:16;;;;;;;4.85;3.33;;;;;;;18.82;50.91;101380.28;5020709;28;20053;-73
2023/08/13 06:25:45;;;;;;;5.50;3.28;;;;;;;18.83;51.24;101379.25;5020206;28;20073;-72
2023/08/13 06:28:13;;;;;;;5.75;3.50;;;;;;;18.85;50.85;101382.72;5021436;28;20065;-72
2023/08/13 06:30:45;;;;;;;6.20;3.38;;;;;;;18.90;51.05;101383.03;5019261;28;20052;-72
2023/08/13 06:33:13;;;;;;;8.53;4.20;;;;;;;18.86;50.76;101383.59;5025147;28;20044;-72
2023/08/13 06:35:44;;;;;;;7.32;3.78;;;;;;;18.92;51.33;101385.63;5026286;28;20105;-72
2023/08/13 06:38:12;;;;;;;5.25;3.50;;;;;;;18.90;50.75;101379.41;5020539;28;20126;-72
2023/08/13 06:40:40;;;;;;;6.55;3.40;;;;;;;18.92;50.79;101385.63;5019447;28;20540;-72
2023/08/13 06:43:08;;;;;;;7.50;3.85;;;;;;;18.94;50.82;101385.47;5026185;28;20053;-72
2023/08/13 06:45:36;;;;;;;6.57;3.30;;;;;;;18.94;50.64;101383.56;5012230;28;20505;-72
2023/08/13 06:48:07;;;;;;;4.88;3.25;;;;;;;18.98;51.24;101386.84;5017068;28;20045;-72
2023/08/13 06:50:34;;;;;;;5.60;3.10;;;;;;;18.98;51.27;101384.06;5018546;28;20120;-72
2023/08/13 06:53:02;;;;;;;5.82;3.30;;;;;;;19.00;51.77;101387.53;5020224;28;20034;-73
2023/08/13 06:55:30;;;;;;;5.13;3.15;;;;;;;19.01;51.32;101375.41;5024276;28;20083;-72
2023/08/13 06:57:58;;;;;;;4.80;2.72;;;;;;;19.04;51.30;101387.00;5023436;28;20046;-72
2023/08/13 07:00:26;;;;;;;5.65;3.20;;;;;;;19.07;51.31;101383.88;5022393;28;20109;-72
2023/08/13 07:03:41;;;;;;;5.00;3.00;;;;;;;19.11;51.11;101385.25;5021214;28;20056;-85
2023/08/13 07:06:25;;;;;;;8.03;3.30;;;;;;;19.09;51.62;101378.16;5035869;28;20049;-85
2023/08/13 07:18:27;;;;;;;4.75;2.63;;;;;;;19.20;51.10;101377.78;4973064;28;20057;-84
2023/08/13 07:30:28;;;;;;;5.82;2.35;;;;;;;19.27;51.06;101379.69;4951778;28;20121;-81
2023/08/13 07:32:56;;;;;;;5.80;2.90;;;;;;;19.33;51.14;101377.22;4951987;28;20039;-81
2023/08/13 07:35:24;;;;;;;5.20;2.75;;;;;;;19.37;51.26;101376.72;4954208;28;20130;-81
2023/08/13 07:37:53;;;;;;;5.47;2.92;;;;;;;19.41;50.97;101378.06;4988549;28;20153;-82
2023/08/13 07:40:21;;;;;;;5.38;2.97;;;;;;;19.46;51.34;101378.38;4991715;28;20042;-81
2023/08/13 07:42:49;;;;;;;5.70;2.83;;;;;;;19.51;51.12;101383.41;5006094;28;20038;-81
2023/08/13 07:45:17;;;;;;;5.63;3.05;;;;;;;19.58;51.26;101387.19;5005890;28;20038;-80
2023/08/13 07:47:47;;;;;;;5.22;2.95;;;;;;;19.68;51.30;101393.41;5005876;28;20050;-80
2023/08/13 07:50:15;;;;;;;4.65;2.53;;;;;;;19.74;51.15;101395.44;4995558;28;20062;-80
2023/08/13 07:52:43;;;;;;;4.93;2.60;;;;;;;19.83;50.98;101394.34;5001589;28;20091;-80
2023/08/13 07:55:11;;;;;;;4.35;2.47;;;;;;;19.91;50.33;101386.00;5015340;28;20514;-80
2023/08/13 07:57:39;;;;;;;5.72;2.58;;;;;;;20.01;50.25;101389.41;5020938;28;20060;-80
2023/08/13 08:00:10;;;;;;;7.13;2.72;;;;;;;20.11;49.98;101394.75;5021853;28;20448;-80
2023/08/13 08:02:44;;;;;;;5.43;2.80;;;;;;;20.17;49.59;101394.00;4996961;28;20049;-81
2023/08/13 08:05:13;;;;;;;8.00;3.08;;;;;;;20.25;49.11;101387.50;5013462;28;20054;-81
2023/08/13 08:07:41;;;;;;;6.03;2.60;;;;;;;20.29;48.58;101383.28;4993369;28;20060;-81
2023/08/13 08:10:09;;;;;;;5.13;2.20;;;;;;;20.34;48.32;101387.25;5012511;28;20112;-80
2023/08/13 08:12:37;;;;;;;5.70;2.10;;;;;;;20.39;48.08;101393.13;5005234;28;20061;-80
2023/08/13 08:15:06;;;;;;;4.03;2.10;;;;;;;20.44;47.72;101388.94;4989819;28;20770;-80
2023/08/13 08:17:35;;;;;;;5.43;2.45;;;;;;;20.48;47.69;101384.72;5008367;28;20052;-80
2023/08/13 08:20:04;;;;;;;3.65;1.77;;;;;;;20.51;47.50;101384.34;4994846;28;20502;-80
2023/08/13 08:22:59;;;;;;;5.10;2.10;;;;;;;20.51;46.41;101387.13;5001532;28;20383;-80
2023/08/13 08:25:29;;;;;;;4.47;1.88;;;;;;;20.55;47.27;101381.00;5002962;28;20045;-80
2023/08/13 08:28:25;;;;;;;4.75;1.80;;;;;;;20.60;47.12;101373.00;4999985;28;20056;-80
2023/08/13 08:30:54;;;;;;;3.65;1.80;;;;;;;20.60;47.48;101373.00;5038984;22;20446;-63
2023/08/13 08:33:23;;;;;;;5.85;1.95;;;;;;;20.67;47.33;101370.31;5027379;28;20033;-61
2023/08/13 08:35:51;;;;;;;4.97;1.90;;;;;;;20.71;46.92;101361.41;5026700;28;20404;-62
2023/08/13 08:38:20;;;;;;;5.47;2.30;;;;;;;20.77;46.61;101368.16;5028908;28;20544;-62
2023/08/13 08:40:49;;;;;;;4.40;2.10;;;;;;;20.81;46.48;101365.84;5020511;28;20091;-62
2023/08/13 08:43:18;;;;;;;5.30;1.88;;;;;;;20.85;46.31;101370.84;5027472;28;20049;-63
2023/08/13 08:45:46;;;;;;;4.47;1.70;;;;;;;20.88;46.55;101364.03;5020736;28;20045;-62
2023/08/13 08:48:15;;;;;;;3.45;1.83;;;;;;;20.92;46.48;101366.25;5027427;28;20061;-62
2023/08/13 08:50:44;;;;;;;3.38;1.52;;;;;;;20.99;46.17;101367.22;5027610;28;20071;-62
2023/08/13 08:53:14;;;;;;;2.95;1.50;;;;;;;21.05;45.97;101360.88;5031912;28;20095;-60
2023/08/13 08:55:45;;;;;;;3.13;1.45;;;;;;;21.13;45.87;101368.25;5031699;28;20059;-63
2023/08/13 08:58:13;;;;;;;3.90;1.88;;;;;;;21.15;45.99;101369.81;5025391;28;20124;-62
2023/08/13 09:00:42;;;;;;;3.88;1.40;;;;;;;21.26;46.03;101367.66;5026019;28;20068;-62
2023/08/13 09:03:10;;;;;;;3.58;1.48;;;;;;;21.33;45.79;101369.47;5027485;28;20041;-62
2023/08/13 09:05:39;;;;;;;3.88;1.58;;;;;;;21.42;45.86;101365.53;5020819;28;20065;-63
2023/08/13 09:08:12;;;;;;;3.58;1.60;;;;;;;21.51;44.84;101372.72;5026685;28;20084;-62
2023/08/13 09:10:45;;;;;;;3.63;1.60;;;;;;;21.58;45.16;101358.88;5020957;28;20068;-62
2023/08/13 09:13:13;;;;;;;3.65;1.60;;;;;;;21.64;44.89;101357.22;5027694;28;20461;-62
2023/08/13 09:15:44;;;;;;;3.45;1.48;;;;;;;21.74;44.38;101357.78;5021636;28;20073;-62
2023/08/13 09:18:12;;;;;;;3.63;1.98;;;;;;;21.75;44.77;101351.16;5006129;28;20060;-62
2023/08/13 09:20:45;;;;;;;4.63;1.63;;;;;;;21.84;43.52;101359.19;5044692;28;20106;-62
2023/08/13 09:23:19;;;;;;;;;;;;;;;21.57;44.78;101357.13;5046811;28;20056;-62
2023/08/13 09:25:52;;;;;;;2.92;1.45;;;;;;;21.91;43.93;101353.72;5045951;28;19934;-63
2023/08/13 09:28:20;;;;;;;2.53;1.30;;;;;;;21.99;44.13;101347.16;5046919;28;20033;-62
2023/08/13 09:30:48;;;;;;;3.88;1.45;;;;;;;22.06;43.70;101348.09;5044584;28;20095;-62
2023/08/13 09:33:18;;;;;;;4.18;1.77;;;;;;;22.11;43.89;101351.13;5047369;28;20159;-62
2023/08/13 09:35:46;;;;;;;5.15;1.80;;;;;;;22.16;43.58;101351.44;5046489;28;20462;-62
2023/08/13 09:38:14;;;;;;;4.10;1.90;;;;;;;22.20;43.38;101341.59;5046695;28;20041;-62
2023/08/13 09:40:45;;;;;;;3.22;1.52;;;;;;;22.28;43.02;101341.44;5027747;28;20033;-63
2023/08/13 09:43:21;;;;;;;3.75;1.67;;;;;;;22.34;43.03;101339.81;5036003;28;20041;-62
2023/08/13 09:45:51;;;;;;;3.55;1.50;;;;;;;22.36;42.91;101335.72;5037521;28;20048;-63
2023/08/13 09:48:22;;;;;;;4.03;1.55;;;;;;;22.41;42.70;101332.38;5038028;28;20149;-63
2023/08/13 09:50:54;;;;;;;3.42;1.60;;;;;;;22.44;42.79;101318.84;5037565;28;20477;-63
2023/08/13 09:53:25;;;;;;;4.40;1.92;;;;;;;22.47;42.73;101326.84;5037585;28;20057;-68
2023/08/13 09:56:00;;;;;;;3.10;1.45;;;;;;;22.52;41.15;101317.84;5025427;28;20676;-66
2023/08/13 09:58:30;;;;;;;4.78;1.75;;;;;;;22.56;42.05;101317.28;5043513;28;20621;-66
2023/08/13 10:00:58;;;;;;;3.10;1.70;;;;;;;22.59;41.94;101310.47;5045096;28;20823;-67
2023/08/13 10:03:28;;;;;;;3.50;1.45;;;;;;;22.63;41.95;101306.19;5045982;28;20499;-66
2023/08/13 10:05:59;;;;;;;3.15;1.40;;;;;;;22.67;41.59;101310.31;5041826;28;20452;-66
2023/08/13 10:08:27;;;;;;;4.47;1.63;;;;;;;22.67;41.52;101301.94;5045157;28;21035;-66
2023/08/13 10:10:55;;;;;;;2.67;1.45;;;;;;;22.69;41.49;101305.34;5027199;28;20133;-67
2023/08/13 10:13:24;;;;;;;3.38;1.48;;;;;;;22.72;41.12;101304.09;5045503;28;20069;-67
2023/08/13 10:15:54;;;;;;;3.85;1.80;;;;;;;22.76;41.03;101306.25;5034728;28;20230;-70
2023/08/13 10:18:23;;;;;;;4.43;1.70;;;;;;;22.77;40.96;101302.41;5039046;28;20057;-61
2023/08/13 10:20:51;;;;;;;4.70;1.85;;;;;;;22.77;40.83;101293.19;5038024;28;20044;-61
2023/08/13 10:23:19;;;;;;;3.13;1.60;;;;;;;22.79;40.61;101300.28;5039492;28;20059;-62
2023/08/13 10:25:53;;;;;;;3.53;1.45;;;;;;;22.82;39.73;101297.09;5036061;28;20105;-61
2023/08/13 10:28:23;;;;;;;4.65;1.58;;;;;;;22.81;40.37;101295.38;5041550;28;20036;-61
2023/08/13 10:31:30;;;;;;;3.55;1.70;;;;;;;22.83;39.88;101286.81;5042402;28;20068;-61
2023/08/13 10:34:07;;;;;;;2.80;1.55;;;;;;;22.86;40.08;101297.53;5042288;28;20065;-61
2023/08/13 10:36:44;;;;;;;3.00;1.50;;;;;;;22.90;39.75;101293.28;5042056;28;20118;-61
2023/08/13 10:39:34;;;;;;;3.60;1.63;;;;;;;22.90;39.51;101293.28;5041943;28;20232;-61
2023/08/13 10:42:04;;;;;;;3.40;1.30;;;;;;;22.94;40.25;101291.78;5041186;28;20049;-61
2023/08/13 10:44:33;;;;;;;4.38;1.60;;;;;;;22.97;40.12;101295.03;5040659;28;20091;-62
2023/08/13 10:47:03;;;;;;;3.25;1.52;;;;;;;23.02;39.40;101284.09;5041175;28;20089;-62
2023/08/13 10:49:31;;;;;;;4.25;1.70;;;;;;;23.02;39.69;101289.69;5041068;28;20102;-61
2023/08/13 10:52:02;;;;;;;3.45;1.70;;;;;;;23.07;39.53;101289.09;5043710;28;20570;-63
2023/08/13 10:54:30;;;;;;;3.72;1.65;;;;;;;23.08;39.41;101285.22;5041698;28;20041;-62
2023/08/13 10:56:59;;;;;;;3.25;1.63;;;;;;;23.11;39.09;101278.34;5041454;28;20076;-63
2023/08/13 10:59:31;;;;;;;3.80;1.30;;;;;;;23.15;38.68;101277.75;5043586;28;20122;-69
2023/08/13 11:02:20;;;;;;;3.50;1.50;;;;;;;23.15;38.56;101279.69;5049022;28;20053;-69
2023/08/13 11:04:51;;;;;;;3.58;1.70;;;;;;;23.16;39.66;101273.06;5042774;28;20448;-69
2023/08/13 11:07:21;;;;;;;4.25;1.73;;;;;;;23.19;39.46;101265.09;5048555;28;20585;-63
2023/08/13 11:09:49;;;;;;;7.90;2.17;;;;;;;23.22;39.17;101261.06;5048487;28;20059;-63
2023/08/13 11:12:17;;;;;;;2.88;1.80;;;;;;;23.24;39.05;101270.09;5048068;28;20078;-63
2023/08/13 11:14:45;;;;;;;3.58;1.75;;;;;;;23.27;38.79;101273.31;5044647;28;20381;-63
2023/08/13 11:17:13;;;;;;;3.47;1.70;;;;;;;23.30;39.03;101269.25;5046129;28;20152;-63
2023/08/13 11:19:42;;;;;;;3.22;1.63;;;;;;;23.35;38.60;101266.69;5038213;28;20048;-61
2023/08/13 11:22:10;;;;;;;3.33;1.60;;;;;;;23.35;38.74;101261.97;5039884;28;20041;-63
2023/08/13 11:24:39;;;;;;;4.47;1.65;;;;;;;23.39;38.79;101259.63;5040493;28;20068;-61
2023/08/13 11:27:07;;;;;;;4.07;1.70;;;;;;;23.43;38.51;101263.69;5041832;28;20060;-62
2023/08/13 11:29:34;;;;;;;4.55;1.70;;;;;;;23.46;38.36;101268.88;5040027;28;20424;-63
2023/08/13 11:32:05;;;;;;;3.53;1.50;;;;;;;23.51;37.88;101263.50;5040204;28;20123;-62
2023/08/13 11:34:34;;;;;;;2.83;1.65;;;;;;;23.51;38.08;101259.84;5040519;28;20438;-63
2023/08/13 11:37:03;;;;;;;4.38;1.90;;;;;;;23.54;37.93;101276.22;5041884;28;20047;-63
2023/08/13 11:39:32;;;;;;;3.22;1.70;;;;;;;23.54;37.84;101271.50;5038920;28;20049;-63
2023/08/13 11:42:07;;;;;;;3.72;1.77;;;;;;;23.59;36.73;101270.84;5041118;28;20367;-61
2023/08/13 11:44:35;;;;;;;4.55;1.70;;;;;;;23.57;37.63;101275.81;5043093;28;20479;-62
2023/08/13 11:47:04;;;;;;;3.30;1.77;;;;;;;23.58;37.58;101271.94;5036808;28;20497;-61
2023/08/13 11:49:40;;;;;;;4.93;2.10;;;;;;;23.59;37.16;101270.84;5027243;28;20045;-61
2023/08/13 11:52:10;;;;;;;3.25;1.73;;;;;;;23.61;36.88;101271.50;5040818;28;20049;-61
2023/08/13 11:54:41;;;;;;;2.85;1.75;;;;;;;23.61;36.89;101275.16;5047655;28;20045;-61